Etusivu
METAR-TAF:

METAR-TAF

Lentoasemat :

Berlevåg, Norja

Leveyspiiri: 70-52N, Pituuspiiri: 029-02E, korkeus merenpinnasta: 1 m

Tämänhetkinen sää

Tämä raportti tehtiin 6 tuntia ja 40 minuuttia sitten, kello 19.50 UTC
Tuuli 8 kn etelästä/lounaasta
Lämpötila 2°C
Kosteus 93%
Ilmanpaine 992 hPa
Näkyvyys 10 km tai enemmän
Muutamia pilviä 1000 ft:n korkeudessa
Hajonneita pilviä 2500 ft:n korkeudessa
heikkoa sadetta

METAR: ENBV 241950Z 20008KT 9999 -RA FEW010 BKN025 02/01 Q0992

Aika: 04:30 (02:30 UTC)

Sääennuste

Tämä raportti tehtiin 12 tuntia ja 30 minuuttia sitten, kello 14.00 UTC
Ennuste voimassa 24. päivästä klo 15 UTC - 24. päivään klo 20 UTC
Tuuli 12 kn lounaasta
Näkyvyys 10 km tai enemmän
Muutamia pilviä 1500 ft:n korkeudessa
Hajonneita pilviä 3000 ft:n korkeudessa
heikkoa sadetta

TAF: ENBV 241400Z 2415/2420 22012KT 9999 -RA FEW015 BKN030

Säähavainnot ja -ennusteet yli 4000 lentoasemalta (METAR- ja TAF-raportit).

Käytössä olevat sääasemat on merkitty karttaan keltaisilla ja punaisilla pisteillä.

Aseta hiiri pisteen päälle nähdäksesi sääaseman nimen.

Klikkaa sitten nähdäksesi säähavainnot ja -ennusteet.

Kartan vaihtaminen: klikkaa mustalla rastilla varustettuja vihreitä pisteitä, niin voit zoomata sisään; viivalla varustettua vihreää pistettä, niin voit zoomata ulos tai vihreitä nuolia, niin pääset viereisille kartoille.


METAR-TAF: